Terminal Aerodrome Forecast
Issued by NWS

Home | Current Version | Previous Version | Text Only | Print | Product List | Glossary On
Versions: 1 2 3 4 5 6 7 8 9 10 11 12 13 14 15 16 17 18
000
FTUS43 KLSX 201700
TAFCPS
TAF
KCPS 201739Z 2018/2118 25007KT P6SM SCT050 BKN250
     FM201820 07012KT P6SM SCT050 BKN250
     FM202000 23010KT P6SM SCT050 SCT250
     FM210100 17006KT P6SM SCT090
     FM211300 23010KT P6SM SCT040=

USA.gov is the U.S. government's official web portal to all federal, state and local government web resources and services.